Terminal Aerodrome Forecast
Issued by NWS

Home | Current Version | Previous Version | Text Only | Print | Product List | Glossary On
Versions: 1 2 3 4 5 6 7 8 9 10 11 12 13 14 15
962
FTUS46 KSEW 061730
TAFOLM
TAF
KOLM 061730Z 0618/0718 VRB03KT P6SM FEW010 BKN020
     FM062000 01005KT P6SM SCT025
     FM062300 02003KT P6SM SKC
     FM070500 00000KT 4SM BR BKN005
     FM070900 03002KT 1/2SM FZFG BKN001=

USA.gov is the U.S. government's official web portal to all federal, state and local government web resources and services.